Walgett, Australia
Current Conditions -  °F | °C
As of 6:00 PM on Wednesday 26 Nov 2014 (Local Time) from YMOR Reporting Station
Clear Clear  
Wind Chill: 88°   Ceiling: Unl
Heat Index: 88°   Visibility: 6mi
Dew Point: 57°   Wind: 2mph
Humidity: 35%   Direction: 300°WNW
Pressure: 29.91"   Gusts: NA
Location:  30.02°S, 148.12°E
Report Text: YMOR 260700Z AUTO 30002KT 9999 // NCD 31/14 Q1013
Loading
Personal Weather Stations






























Interactive Weather Map New forecast layout! Learn more

10-Day Weather Forecast

Advertisements
Track Severe Weather on mobile